createdAt,value
2022-12-11T00:02:24.686Z,57.20
2022-12-11T00:04:52.130Z,64.63
2022-12-11T00:07:19.241Z,60.80
2022-12-11T00:09:46.311Z,61.85
2022-12-11T00:12:13.426Z,52.17
2022-12-11T00:14:40.575Z,57.85
2022-12-11T00:17:07.677Z,59.25
2022-12-11T00:19:35.059Z,54.90
2022-12-11T00:22:02.242Z,53.42
2022-12-11T00:24:29.389Z,48.40
2022-12-11T00:26:56.762Z,59.67
2022-12-11T00:29:23.876Z,63.88
2022-12-11T00:31:51.022Z,54.97
2022-12-11T00:34:18.145Z,62.50
2022-12-11T00:36:45.296Z,53.67
2022-12-11T00:39:12.443Z,53.08
2022-12-11T00:41:39.847Z,62.35
2022-12-11T00:44:07.032Z,46.83
2022-12-11T00:46:34.233Z,61.13
2022-12-11T00:49:01.387Z,60.05
2022-12-11T00:51:28.565Z,67.00
2022-12-11T00:53:55.674Z,49.63
2022-12-11T00:56:23.326Z,58.90
2022-12-11T00:58:50.777Z,54.58
2022-12-11T01:01:21.013Z,63.20
2022-12-11T01:03:48.387Z,66.68
2022-12-11T01:06:19.583Z,58.58
2022-12-11T01:08:47.175Z,67.60
2022-12-11T01:11:16.192Z,52.03
2022-12-11T01:13:44.132Z,67.25
2022-12-11T01:16:15.391Z,80.63
2022-12-11T01:18:42.867Z,66.75
2022-12-11T01:21:11.193Z,75.18
2022-12-11T01:23:38.655Z,78.75
2022-12-11T01:26:06.666Z,67.88
2022-12-11T01:28:33.778Z,68.13
2022-12-11T01:31:01.021Z,56.42
2022-12-11T01:33:28.196Z,57.78
2022-12-11T01:35:55.497Z,73.38
2022-12-11T01:38:22.588Z,69.93
2022-12-11T01:40:51.300Z,65.90
2022-12-11T01:43:18.812Z,68.35
2022-12-11T01:45:48.142Z,69.30
2022-12-11T01:48:18.452Z,61.70
2022-12-11T01:50:50.210Z,47.70
2022-12-11T01:53:20.426Z,59.38
2022-12-11T01:55:48.477Z,47.20
2022-12-11T01:58:17.086Z,61.22
2022-12-11T02:00:44.192Z,59.15
2022-12-11T02:03:11.330Z,55.30
2022-12-11T02:05:38.867Z,62.67
2022-12-11T02:08:07.663Z,55.53
2022-12-11T02:10:57.568Z,55.60
2022-12-11T02:13:32.131Z,59.38
2022-12-11T02:16:18.246Z,57.05
2022-12-11T02:18:53.546Z,56.67
2022-12-11T02:23:55.299Z,58.08
2022-12-11T02:26:34.322Z,46.08
2022-12-11T02:29:08.047Z,51.20
2022-12-11T02:31:38.463Z,53.72
2022-12-11T02:34:09.419Z,49.85
2022-12-11T02:36:38.420Z,54.80
2022-12-11T02:39:07.898Z,55.33
2022-12-11T02:41:35.724Z,58.80
2022-12-11T02:44:03.418Z,59.22
2022-12-11T02:46:31.686Z,58.47
2022-12-11T02:48:59.045Z,55.08
2022-12-11T02:51:38.277Z,37.13
2022-12-11T02:54:07.517Z,48.28
2022-12-11T02:56:38.051Z,47.13
2022-12-11T02:59:09.990Z,45.03
2022-12-11T03:01:37.171Z,46.97
2022-12-11T03:04:04.300Z,49.88
2022-12-11T03:06:35.600Z,39.03
2022-12-11T03:09:02.776Z,41.42
2022-12-11T03:11:29.982Z,48.13
2022-12-11T03:13:57.186Z,36.38
2022-12-11T03:16:24.389Z,50.13
2022-12-11T03:18:51.496Z,45.88
2022-12-11T03:21:21.967Z,37.95
2022-12-11T03:23:57.819Z,43.30
2022-12-11T03:26:25.341Z,35.65
2022-12-11T03:29:00.474Z,40.72
2022-12-11T03:31:27.535Z,45.15
2022-12-11T03:33:56.353Z,38.25
2022-12-11T03:36:26.356Z,36.10
2022-12-11T03:39:01.810Z,35.63
2022-12-11T03:41:30.497Z,36.33
2022-12-11T03:43:58.639Z,34.30
2022-12-11T03:46:31.364Z,33.75
2022-12-11T03:49:01.478Z,30.73
2022-12-11T03:51:30.295Z,35.08
2022-12-11T03:53:57.736Z,30.95
2022-12-11T03:56:27.557Z,32.70
2022-12-11T03:58:54.698Z,33.95
2022-12-11T04:01:21.903Z,25.67
2022-12-11T04:03:49.087Z,33.72
2022-12-11T04:06:16.259Z,30.75
2022-12-11T04:08:43.355Z,26.58
2022-12-11T04:11:29.122Z,32.22
2022-12-11T04:14:14.924Z,28.25
2022-12-11T04:16:42.007Z,23.63
2022-12-11T04:19:28.853Z,29.38
2022-12-11T04:22:14.784Z,31.05
2022-12-11T04:24:41.897Z,29.75
2022-12-11T04:27:08.955Z,27.25
2022-12-11T04:29:36.172Z,28.20
2022-12-11T04:32:03.347Z,30.98
2022-12-11T04:34:30.710Z,26.42
2022-12-11T04:36:57.777Z,27.65
2022-12-11T04:39:24.858Z,23.13
2022-12-11T04:41:51.965Z,30.67
2022-12-11T04:44:19.082Z,31.02
2022-12-11T04:46:46.170Z,29.65
2022-12-11T04:49:13.328Z,31.45
2022-12-11T04:51:40.416Z,25.55
2022-12-11T04:54:07.570Z,22.58
2022-12-11T04:56:34.634Z,24.15
2022-12-11T04:59:01.733Z,26.75
2022-12-11T05:01:28.795Z,25.52
2022-12-11T05:03:56.145Z,25.98
2022-12-11T05:06:23.227Z,23.83
2022-12-11T05:08:50.384Z,28.02
2022-12-11T05:11:17.552Z,26.40
2022-12-11T05:13:45.564Z,28.80
2022-12-11T05:16:14.507Z,28.27
2022-12-11T05:18:41.599Z,22.05
2022-12-11T05:21:10.111Z,26.33
2022-12-11T05:23:37.636Z,28.05
2022-12-11T05:26:09.050Z,28.45
2022-12-11T05:28:37.619Z,30.25
2022-12-11T05:31:14.821Z,25.85
2022-12-11T05:33:42.142Z,31.08
2022-12-11T05:36:09.557Z,29.15
2022-12-11T05:38:36.674Z,22.45
2022-12-11T05:41:05.122Z,23.42
2022-12-11T05:43:33.501Z,23.05
2022-12-11T05:46:08.226Z,31.80
2022-12-11T05:48:35.947Z,26.13
2022-12-11T05:51:03.679Z,27.50
2022-12-11T05:53:31.407Z,30.40
2022-12-11T05:56:02.388Z,25.40
2022-12-11T05:58:29.774Z,32.13
2022-12-11T06:00:56.896Z,36.13
2022-12-11T06:03:23.987Z,28.58
2022-12-11T06:05:51.055Z,30.05
2022-12-11T06:08:18.286Z,33.85
2022-12-11T06:10:48.934Z,29.25
2022-12-11T06:13:16.601Z,29.13
2022-12-11T06:15:44.019Z,33.00
2022-12-11T06:18:11.171Z,31.20
2022-12-11T06:20:38.885Z,30.05
2022-12-11T06:23:06.189Z,24.40
2022-12-11T06:25:33.289Z,30.13
2022-12-11T06:28:00.354Z,32.78
2022-12-11T06:30:38.559Z,29.35
2022-12-11T06:33:06.824Z,31.77
2022-12-11T06:35:40.051Z,25.10
2022-12-11T06:38:08.691Z,27.70
2022-12-11T06:40:35.823Z,30.92
2022-12-11T06:43:03.508Z,30.65
2022-12-11T06:45:30.957Z,35.15
2022-12-11T06:47:58.884Z,39.28
2022-12-11T06:50:25.974Z,32.28
2022-12-11T06:52:53.104Z,36.35
2022-12-11T06:55:20.233Z,33.30
2022-12-11T06:57:47.326Z,33.50
2022-12-11T07:00:14.863Z,29.35
2022-12-11T07:02:42.000Z,37.30
2022-12-11T07:05:09.626Z,33.15
2022-12-11T07:07:36.906Z,34.53
2022-12-11T07:10:08.237Z,37.42
2022-12-11T07:12:36.031Z,29.50
2022-12-11T07:15:03.260Z,31.45
2022-12-11T07:17:30.441Z,25.65
2022-12-11T07:19:57.646Z,33.92
2022-12-11T07:22:24.728Z,33.65
2022-12-11T07:24:51.806Z,32.90
2022-12-11T07:27:19.132Z,37.17
2022-12-11T07:29:46.303Z,36.88
2022-12-11T07:32:13.576Z,32.92
2022-12-11T07:34:40.735Z,35.88
2022-12-11T07:37:07.876Z,37.78
2022-12-11T07:39:34.978Z,36.70
2022-12-11T07:42:02.231Z,32.03
2022-12-11T07:44:29.386Z,36.65
2022-12-11T07:46:56.444Z,35.53
2022-12-11T07:49:23.860Z,40.42
2022-12-11T07:51:51.184Z,34.95
2022-12-11T07:54:18.331Z,36.55
2022-12-11T07:56:51.201Z,37.13
2022-12-11T07:59:21.223Z,36.25
2022-12-11T08:01:48.409Z,37.63
2022-12-11T08:04:15.976Z,35.33
2022-12-11T08:06:43.590Z,36.15
2022-12-11T08:09:17.462Z,37.88
2022-12-11T08:11:48.883Z,32.78
2022-12-11T08:14:15.995Z,34.00
2022-12-11T08:16:44.194Z,40.80
2022-12-11T08:19:12.332Z,35.50
2022-12-11T08:21:40.144Z,37.05
2022-12-11T08:24:07.301Z,35.25
2022-12-11T08:26:34.451Z,36.72
2022-12-11T08:29:02.618Z,39.03
2022-12-11T08:31:29.918Z,36.13
2022-12-11T08:33:57.204Z,35.30
2022-12-11T08:36:24.791Z,34.15
2022-12-11T08:38:52.206Z,34.00
2022-12-11T08:41:20.839Z,35.78
2022-12-11T08:43:48.382Z,35.72
2022-12-11T08:46:16.082Z,34.90
2022-12-11T08:48:44.042Z,35.45
2022-12-11T08:51:15.139Z,34.67
2022-12-11T08:53:42.698Z,36.13
2022-12-11T08:56:13.795Z,38.45
2022-12-11T08:58:40.950Z,35.50
2022-12-11T09:01:09.205Z,37.92
2022-12-11T09:03:37.019Z,42.20
2022-12-11T09:06:06.116Z,35.17
2022-12-11T09:08:33.489Z,36.22
2022-12-11T09:11:04.751Z,31.63
2022-12-11T09:13:31.932Z,40.28
2022-12-11T09:15:59.204Z,40.80
2022-12-11T09:18:26.376Z,35.45
2022-12-11T09:21:10.533Z,40.88
2022-12-11T09:23:37.991Z,25.52
2022-12-11T09:26:06.221Z,37.38
2022-12-11T09:28:33.475Z,36.17
2022-12-11T09:31:00.864Z,38.97
2022-12-11T09:33:28.757Z,34.38
2022-12-11T09:36:02.863Z,38.00
2022-12-11T09:38:30.272Z,38.50
2022-12-11T09:40:57.489Z,34.97
2022-12-11T09:43:33.946Z,37.95
2022-12-11T09:46:03.720Z,34.10
2022-12-11T09:48:33.976Z,34.85
2022-12-11T09:51:04.945Z,36.05
2022-12-11T09:53:34.997Z,34.08
2022-12-11T09:56:10.564Z,33.67
2022-12-11T09:58:47.990Z,30.92
2022-12-11T10:01:34.595Z,35.28
2022-12-11T10:04:20.571Z,30.08
2022-12-11T10:06:50.705Z,29.17
2022-12-11T10:09:18.286Z,30.05
2022-12-11T10:11:56.740Z,29.00
2022-12-11T10:14:27.022Z,27.15
2022-12-11T10:17:00.044Z,28.50
2022-12-11T10:19:28.885Z,33.35
2022-12-11T10:21:56.507Z,28.52
2022-12-11T10:27:33.698Z,29.77
2022-12-11T10:30:03.091Z,28.45
2022-12-11T10:32:37.767Z,29.75
2022-12-11T10:35:06.223Z,26.77
2022-12-11T10:37:33.712Z,26.05
2022-12-11T10:40:00.817Z,29.80
2022-12-11T10:42:28.047Z,27.17
2022-12-11T10:44:59.543Z,25.95
2022-12-11T10:47:27.005Z,27.33
2022-12-11T10:49:55.964Z,27.20
2022-12-11T10:52:25.216Z,27.75
2022-12-11T10:57:26.997Z,19.10
2022-12-11T10:59:54.192Z,26.88
2022-12-11T11:02:33.719Z,26.65
2022-12-11T11:05:01.869Z,24.33
2022-12-11T11:07:30.039Z,30.50
2022-12-11T11:10:13.555Z,29.80
2022-12-11T11:12:45.346Z,22.38
2022-12-11T11:15:15.277Z,28.42
2022-12-11T11:17:54.199Z,27.85
2022-12-11T11:20:24.670Z,25.85
2022-12-11T11:22:53.515Z,28.33
2022-12-11T11:25:22.488Z,33.33
2022-12-11T11:27:51.515Z,32.10
2022-12-11T11:30:20.407Z,25.23
2022-12-11T11:32:47.616Z,28.40
2022-12-11T11:35:18.575Z,32.28
2022-12-11T11:37:47.368Z,25.23
2022-12-11T11:40:17.497Z,24.60
2022-12-11T11:42:56.833Z,26.95
2022-12-11T11:45:27.517Z,25.95
2022-12-11T11:48:13.406Z,28.30
2022-12-11T11:50:45.005Z,23.08
2022-12-11T11:53:19.986Z,30.13
2022-12-11T11:55:55.830Z,30.55
2022-12-11T11:58:28.413Z,25.17
2022-12-11T12:00:55.703Z,26.02
2022-12-11T12:03:24.360Z,29.35
2022-12-11T12:05:54.288Z,29.33
2022-12-11T12:08:31.063Z,27.08
2022-12-11T12:11:05.694Z,28.58
2022-12-11T12:13:49.929Z,31.70
2022-12-11T12:16:51.620Z,29.20
2022-12-11T12:19:28.390Z,25.40
2022-12-11T12:21:55.934Z,27.98
2022-12-11T12:24:29.048Z,28.30
2022-12-11T12:27:49.943Z,28.85
2022-12-11T12:30:06.584Z,29.80
2022-12-11T12:32:52.601Z,28.75
2022-12-11T12:35:35.850Z,30.25
2022-12-11T12:38:23.248Z,29.42
2022-12-11T12:41:00.312Z,30.58
2022-12-11T12:43:34.600Z,33.38
2022-12-11T12:46:14.137Z,31.70
2022-12-11T12:48:41.421Z,32.05
2022-12-11T12:51:13.828Z,32.05
2022-12-11T12:53:42.242Z,32.33
2022-12-11T12:56:11.532Z,27.88
2022-12-11T13:01:41.583Z,30.95
2022-12-11T13:04:20.765Z,32.90
2022-12-11T13:06:56.916Z,30.60
2022-12-11T13:09:25.918Z,31.67
2022-12-11T13:11:57.568Z,34.58
2022-12-11T13:14:28.545Z,36.92
2022-12-11T13:17:16.109Z,31.90
2022-12-11T13:19:43.245Z,35.72
2022-12-11T13:22:13.322Z,33.20
2022-12-11T13:24:52.252Z,34.92
2022-12-11T13:27:37.947Z,35.00
2022-12-11T13:30:25.326Z,32.60
2022-12-11T13:33:06.975Z,34.33
2022-12-11T13:35:35.370Z,36.95
2022-12-11T13:38:05.142Z,35.00
2022-12-11T13:40:40.139Z,42.92
2022-12-11T13:43:12.609Z,37.38
2022-12-11T13:45:55.422Z,34.65
2022-12-11T13:48:29.404Z,35.63
2022-12-11T13:50:57.518Z,35.00
2022-12-11T13:53:24.802Z,31.88
2022-12-11T13:55:58.176Z,30.70
2022-12-11T13:58:25.762Z,36.22
2022-12-11T14:00:59.049Z,34.05
2022-12-11T14:03:26.299Z,36.63
2022-12-11T14:05:53.655Z,36.40
2022-12-11T14:08:28.057Z,33.70
2022-12-11T14:10:58.495Z,33.42
2022-12-11T14:13:32.314Z,35.80
2022-12-11T14:15:59.556Z,34.88
2022-12-11T14:18:30.844Z,36.78
2022-12-11T14:20:59.038Z,31.25
2022-12-11T14:23:27.492Z,36.67
2022-12-11T14:25:56.398Z,33.63
2022-12-11T14:28:27.502Z,35.78
2022-12-11T14:30:57.508Z,38.58
2022-12-11T14:33:26.607Z,37.78
2022-12-11T14:35:55.294Z,35.80
2022-12-11T14:38:31.315Z,40.30
2022-12-11T14:41:01.926Z,37.28
2022-12-11T14:43:36.169Z,41.38
2022-12-11T14:46:05.175Z,34.45
2022-12-11T14:48:35.821Z,40.13
2022-12-11T14:51:04.928Z,36.80
2022-12-11T14:53:52.295Z,38.08
2022-12-11T14:56:24.150Z,39.78
2022-12-11T14:58:58.940Z,34.70
2022-12-11T15:01:30.869Z,41.92
2022-12-11T15:04:16.211Z,37.85
2022-12-11T15:06:44.753Z,38.55
2022-12-11T15:09:21.198Z,38.95
2022-12-11T15:11:49.562Z,39.33
2022-12-11T15:14:18.988Z,38.17
2022-12-11T15:16:46.435Z,39.20
2022-12-11T15:19:22.940Z,41.70
2022-12-11T15:21:50.232Z,38.90
2022-12-11T15:24:25.305Z,36.22
2022-12-11T15:26:52.535Z,33.35
2022-12-11T15:29:32.020Z,41.53
2022-12-11T15:32:19.404Z,37.67
2022-12-11T15:34:51.076Z,41.60
2022-12-11T15:37:24.254Z,40.97
2022-12-11T15:39:51.735Z,37.83
2022-12-11T15:42:23.717Z,38.10
2022-12-11T15:44:51.034Z,38.28
2022-12-11T15:47:21.399Z,47.15
2022-12-11T15:49:48.466Z,40.58
2022-12-11T15:52:15.867Z,38.00
2022-12-11T15:54:42.984Z,46.78
2022-12-11T15:57:24.701Z,37.15
2022-12-11T15:59:53.526Z,38.08
2022-12-11T16:02:24.386Z,39.45
2022-12-11T16:04:51.618Z,34.40
2022-12-11T16:07:21.376Z,29.55
2022-12-11T16:09:48.532Z,33.17
2022-12-11T16:12:16.222Z,29.88
2022-12-11T16:14:44.271Z,32.10
2022-12-11T16:17:12.702Z,34.72
2022-12-11T16:19:40.227Z,37.00
2022-12-11T16:22:08.898Z,38.60
2022-12-11T16:24:36.685Z,37.90
2022-12-11T16:27:04.374Z,39.28
2022-12-11T16:29:35.201Z,34.90
2022-12-11T16:32:02.306Z,35.92
2022-12-11T16:34:29.787Z,33.65
2022-12-11T16:37:00.547Z,42.67
2022-12-11T16:39:27.903Z,49.70
2022-12-11T16:41:55.012Z,44.75
2022-12-11T16:44:23.269Z,53.53
2022-12-11T16:46:50.725Z,43.00
2022-12-11T16:49:18.004Z,41.90
2022-12-11T16:51:45.239Z,41.55
2022-12-11T16:54:12.501Z,44.22
2022-12-11T16:56:39.662Z,39.65
2022-12-11T16:59:06.743Z,40.88
2022-12-11T17:01:34.563Z,38.65
2022-12-11T17:04:01.705Z,41.00
2022-12-11T17:06:29.371Z,32.20
2022-12-11T17:08:56.450Z,31.55
2022-12-11T17:11:24.996Z,29.90
2022-12-11T17:13:55.703Z,32.05
2022-12-11T17:16:24.886Z,29.33
2022-12-11T17:18:52.310Z,37.95
2022-12-11T17:21:20.094Z,27.42
2022-12-11T17:23:47.243Z,27.40
2022-12-11T17:26:14.831Z,27.77
2022-12-11T17:28:41.955Z,28.52
2022-12-11T17:31:10.720Z,31.45
2022-12-11T17:33:38.027Z,30.75
2022-12-11T17:36:05.883Z,30.08
2022-12-11T17:38:33.000Z,24.73
2022-12-11T17:41:00.208Z,27.83
2022-12-11T17:43:27.374Z,27.05
2022-12-11T17:45:55.292Z,29.85
2022-12-11T17:48:22.729Z,31.88
2022-12-11T17:50:50.563Z,31.75
2022-12-11T17:53:18.544Z,27.67
2022-12-11T17:55:46.300Z,32.38
2022-12-11T17:58:17.744Z,28.33
2022-12-11T18:00:46.730Z,28.83
2022-12-11T18:03:14.611Z,29.15
2022-12-11T18:05:46.319Z,32.88
2022-12-11T18:08:18.056Z,31.80
2022-12-11T18:10:45.244Z,32.97
2022-12-11T18:13:12.469Z,28.15
2022-12-11T18:15:40.001Z,29.90
2022-12-11T18:18:07.556Z,29.02
2022-12-11T18:20:34.935Z,29.13
2022-12-11T18:23:02.412Z,30.58
2022-12-11T18:25:29.649Z,29.25
2022-12-11T18:27:57.692Z,29.40
2022-12-11T18:30:26.327Z,35.38
2022-12-11T18:32:53.576Z,27.90
2022-12-11T18:35:21.307Z,30.00
2022-12-11T18:37:48.473Z,37.72
2022-12-11T18:40:15.650Z,29.33
2022-12-11T18:42:42.823Z,34.65
2022-12-11T18:45:10.323Z,31.98
2022-12-11T18:47:37.708Z,34.70
2022-12-11T18:50:07.932Z,37.67
2022-12-11T18:52:35.612Z,30.58
2022-12-11T18:55:03.135Z,31.38
2022-12-11T18:57:30.271Z,29.17
2022-12-11T19:00:02.342Z,28.67
2022-12-11T19:02:29.561Z,27.00
2022-12-11T19:04:56.725Z,35.22
2022-12-11T19:07:23.799Z,33.50
2022-12-11T19:09:50.968Z,27.63
2022-12-11T19:12:18.107Z,40.20
2022-12-11T19:14:45.252Z,31.42
2022-12-11T19:17:12.408Z,28.60
2022-12-11T19:19:39.617Z,25.92
2022-12-11T19:22:06.770Z,26.08
2022-12-11T19:24:33.875Z,30.17
2022-12-11T19:27:01.620Z,30.05
2022-12-11T19:29:32.740Z,26.55
2022-12-11T19:32:00.270Z,28.13
2022-12-11T19:34:27.414Z,26.38
2022-12-11T19:36:55.696Z,28.70
2022-12-11T19:39:22.844Z,26.55
2022-12-11T19:41:50.012Z,33.28
2022-12-11T19:44:17.112Z,30.15
2022-12-11T19:46:44.415Z,28.85
2022-12-11T19:49:11.719Z,29.65
2022-12-11T19:51:39.700Z,32.65
2022-12-11T19:54:07.821Z,27.30
2022-12-11T19:56:35.718Z,28.63
2022-12-11T19:59:04.128Z,27.40
2022-12-11T20:01:32.384Z,25.83
2022-12-11T20:04:01.101Z,30.17
2022-12-11T20:06:38.476Z,27.35
2022-12-11T20:09:07.446Z,28.73
2022-12-11T20:11:34.692Z,28.42
2022-12-11T20:14:01.902Z,29.05
2022-12-11T20:17:01.685Z,29.52
2022-12-11T20:19:16.228Z,31.25
2022-12-11T20:21:43.511Z,33.13
2022-12-11T20:24:11.374Z,29.63
2022-12-11T20:26:39.002Z,27.30
2022-12-11T20:29:08.131Z,31.92
2022-12-11T20:31:35.826Z,25.98
2022-12-11T20:34:03.312Z,26.60
2022-12-11T20:36:30.457Z,30.20
2022-12-11T20:38:57.732Z,28.65
2022-12-11T20:41:25.809Z,25.42
2022-12-11T20:43:54.130Z,25.48
2022-12-11T20:46:21.989Z,27.33
2022-12-11T20:48:49.571Z,26.83
2022-12-11T20:51:23.842Z,27.83
2022-12-11T20:53:58.242Z,29.88
2022-12-11T20:56:26.287Z,25.85
2022-12-11T20:58:53.437Z,23.70
2022-12-11T21:01:22.453Z,25.83
2022-12-11T21:03:50.118Z,27.33
2022-12-11T21:06:26.774Z,26.13
2022-12-11T21:08:54.067Z,25.42
2022-12-11T21:11:21.521Z,25.45
2022-12-11T21:13:48.952Z,25.60
2022-12-11T21:16:16.225Z,29.27
2022-12-11T21:18:44.296Z,29.00
2022-12-11T21:21:11.398Z,29.10
2022-12-11T21:23:38.507Z,25.17
2022-12-11T21:26:05.760Z,31.83
2022-12-11T21:28:35.531Z,29.48
2022-12-11T21:31:05.355Z,35.05
2022-12-11T21:33:32.562Z,29.35
2022-12-11T21:36:00.120Z,31.00
2022-12-11T21:38:28.084Z,25.38
2022-12-11T21:40:56.036Z,28.85
2022-12-11T21:43:23.477Z,24.60
2022-12-11T21:46:06.484Z,27.40
2022-12-11T21:48:33.947Z,27.35
2022-12-11T21:51:12.020Z,27.65
2022-12-11T21:53:39.349Z,28.10
2022-12-11T21:56:07.457Z,24.85
2022-12-11T21:58:34.714Z,26.38
2022-12-11T22:01:01.873Z,26.92
2022-12-11T22:03:29.115Z,26.58
2022-12-11T22:05:56.214Z,26.20
2022-12-11T22:08:23.501Z,30.17
2022-12-11T22:10:52.085Z,29.27
2022-12-11T22:13:19.336Z,28.70
2022-12-11T22:15:46.495Z,28.45
2022-12-11T22:18:13.598Z,29.73
2022-12-11T22:20:40.725Z,24.00
2022-12-11T22:23:07.902Z,24.05
2022-12-11T22:25:35.288Z,25.15
2022-12-11T22:28:02.570Z,27.08
2022-12-11T22:30:29.812Z,25.10
2022-12-11T22:32:56.990Z,25.17
2022-12-11T22:35:27.126Z,27.98
2022-12-11T22:37:55.267Z,26.13
2022-12-11T22:40:22.668Z,22.65
2022-12-11T22:42:49.864Z,25.10
2022-12-11T22:45:17.085Z,24.17
2022-12-11T22:47:44.324Z,27.08
2022-12-11T22:50:12.054Z,26.30
2022-12-11T22:52:39.219Z,25.10
2022-12-11T22:55:07.006Z,26.85
2022-12-11T22:57:36.351Z,23.33
2022-12-11T23:00:05.879Z,26.63
2022-12-11T23:02:33.050Z,25.40
2022-12-11T23:05:00.214Z,23.88
2022-12-11T23:07:27.531Z,29.50
2022-12-11T23:09:54.674Z,26.67
2022-12-11T23:12:23.487Z,25.98
2022-12-11T23:14:51.154Z,27.38
2022-12-11T23:17:18.335Z,33.42
2022-12-11T23:19:46.092Z,29.92
2022-12-11T23:22:13.573Z,20.30
2022-12-11T23:24:40.823Z,27.00
2022-12-11T23:27:07.928Z,28.67
2022-12-11T23:29:35.071Z,28.83
2022-12-11T23:32:02.307Z,25.55
2022-12-11T23:34:29.459Z,28.35
2022-12-11T23:36:56.627Z,24.95
2022-12-11T23:39:23.733Z,25.63
2022-12-11T23:41:50.876Z,27.30
2022-12-11T23:44:18.047Z,28.08
2022-12-11T23:46:45.163Z,25.95
2022-12-11T23:49:12.225Z,28.15
2022-12-11T23:51:39.758Z,27.38
2022-12-11T23:54:06.881Z,31.35
2022-12-11T23:56:34.145Z,22.08
2022-12-11T23:59:01.310Z,28.08
